createdAt,value
2018-09-14T00:00:07.091Z,43.80
2018-09-14T00:01:07.054Z,24.80
2018-09-14T00:02:07.020Z,25.30
2018-09-14T00:03:06.987Z,24.50
2018-09-14T00:04:06.952Z,31.50
2018-09-14T00:05:06.921Z,25.40
2018-09-14T00:06:07.808Z,27.40
2018-09-14T00:07:06.857Z,26.40
2018-09-14T00:08:06.838Z,25.30
2018-09-14T00:09:06.795Z,27.50
2018-09-14T00:10:06.754Z,29.40
2018-09-14T00:11:06.716Z,23.20
2018-09-14T00:12:06.682Z,25.00
2018-09-14T00:13:06.656Z,23.90
2018-09-14T00:14:06.624Z,35.70
2018-09-14T00:15:06.589Z,26.60
2018-09-14T00:16:06.550Z,30.30
2018-09-14T00:17:06.519Z,30.80
2018-09-14T00:18:06.485Z,34.90
2018-09-14T00:19:06.450Z,35.30
2018-09-14T00:20:06.841Z,35.10
2018-09-14T00:21:06.382Z,35.60
2018-09-14T00:22:06.380Z,42.60
2018-09-14T00:23:06.342Z,36.70
2018-09-14T00:24:06.862Z,33.00
2018-09-14T00:25:06.247Z,40.00
2018-09-14T00:26:06.214Z,32.70
2018-09-14T00:27:06.204Z,36.20
2018-09-14T00:28:06.157Z,37.80
2018-09-14T00:29:06.111Z,36.80
2018-09-14T00:30:06.079Z,40.50
2018-09-14T00:31:06.083Z,37.90
2018-09-14T00:32:06.199Z,32.00
2018-09-14T00:33:05.989Z,38.60
2018-09-14T00:34:05.944Z,38.10
2018-09-14T00:35:05.915Z,37.70
2018-09-14T00:36:05.869Z,37.00
2018-09-14T00:37:05.840Z,35.60
2018-09-14T00:38:05.815Z,40.60
2018-09-14T00:39:05.784Z,43.00
2018-09-14T00:40:05.739Z,35.90
2018-09-14T00:41:05.706Z,38.90
2018-09-14T00:42:05.671Z,40.70
2018-09-14T00:43:05.636Z,36.10
2018-09-14T00:44:05.606Z,37.80
2018-09-14T00:45:05.572Z,37.50
2018-09-14T00:46:05.579Z,41.10
2018-09-14T00:47:05.508Z,35.50
2018-09-14T00:48:05.462Z,34.70
2018-09-14T00:49:05.478Z,39.50
2018-09-14T00:50:05.397Z,40.30
2018-09-14T00:51:05.362Z,32.50
2018-09-14T00:52:05.334Z,36.10
2018-09-14T00:53:05.294Z,36.50
2018-09-14T00:54:05.279Z,36.10
2018-09-14T00:55:05.231Z,36.80
2018-09-14T00:56:05.208Z,40.50
2018-09-14T00:57:05.161Z,34.50
2018-09-14T00:58:05.160Z,30.90
2018-09-14T00:59:05.102Z,36.90
2018-09-14T01:00:05.055Z,38.50
2018-09-14T01:01:05.032Z,33.70
2018-09-14T01:02:05.000Z,40.60
2018-09-14T01:03:04.963Z,37.00
2018-09-14T01:04:04.922Z,39.10
2018-09-14T01:05:04.894Z,32.00
2018-09-14T01:06:04.863Z,40.70
2018-09-14T01:07:04.813Z,38.00
2018-09-14T01:08:04.782Z,33.50
2018-09-14T01:09:04.762Z,36.50
2018-09-14T01:10:04.727Z,41.30
2018-09-14T01:11:04.690Z,41.90
2018-09-14T01:12:04.645Z,39.50
2018-09-14T01:13:04.613Z,33.10
2018-09-14T01:14:04.576Z,38.80
2018-09-14T01:15:04.548Z,39.60
2018-09-14T01:16:04.510Z,44.30
2018-09-14T01:17:04.490Z,39.50
2018-09-14T01:18:04.440Z,45.30
2018-09-14T01:19:04.445Z,40.60
2018-09-14T01:20:04.390Z,36.60
2018-09-14T01:21:04.343Z,37.50
2018-09-14T01:22:04.308Z,35.00
2018-09-14T01:23:04.267Z,38.70
2018-09-14T01:24:04.250Z,36.00
2018-09-14T01:25:04.206Z,43.60
2018-09-14T01:26:04.177Z,34.90
2018-09-14T01:27:04.137Z,51.60
2018-09-14T01:28:04.101Z,40.80
2018-09-14T01:29:04.064Z,45.30
2018-09-14T01:30:04.029Z,51.30
2018-09-14T01:31:04.000Z,49.60
2018-09-14T01:32:03.984Z,48.00
2018-09-14T01:33:03.929Z,53.00
2018-09-14T01:34:03.903Z,50.60
2018-09-14T01:35:03.862Z,49.00
2018-09-14T01:36:03.836Z,49.00
2018-09-14T01:37:03.790Z,52.80
2018-09-14T01:38:03.766Z,48.80
2018-09-14T01:39:03.726Z,56.30
2018-09-14T01:40:03.690Z,45.50
2018-09-14T01:41:03.653Z,48.60
2018-09-14T01:42:03.640Z,51.20
2018-09-14T01:43:03.584Z,49.00
2018-09-14T01:44:03.555Z,46.20
2018-09-14T01:45:03.519Z,44.90
2018-09-14T01:46:03.485Z,47.50
2018-09-14T01:47:03.459Z,50.00
2018-09-14T01:48:03.414Z,46.40
2018-09-14T01:49:03.381Z,45.20
2018-09-14T01:50:03.355Z,47.10
2018-09-14T01:51:03.315Z,45.00
2018-09-14T01:52:03.280Z,42.60
2018-09-14T01:53:03.246Z,51.40
2018-09-14T01:54:03.206Z,41.10
2018-09-14T01:55:03.180Z,44.90
2018-09-14T01:56:03.153Z,40.60
2018-09-14T01:57:03.104Z,37.40
2018-09-14T01:58:03.072Z,47.60
2018-09-14T01:59:03.047Z,40.90
2018-09-14T02:00:03.013Z,39.50
2018-09-14T02:01:02.964Z,37.90
2018-09-14T02:02:02.959Z,36.20
2018-09-14T02:03:02.903Z,30.60
2018-09-14T02:04:02.862Z,39.30
2018-09-14T02:05:02.847Z,41.60
2018-09-14T02:06:02.797Z,36.70
2018-09-14T02:07:02.765Z,35.90
2018-09-14T02:08:02.726Z,38.30
2018-09-14T02:09:02.692Z,40.50
2018-09-14T02:10:02.661Z,43.90
2018-09-14T02:11:02.630Z,42.40
2018-09-14T02:12:02.590Z,41.30
2018-09-14T02:13:02.560Z,40.90
2018-09-14T02:14:02.523Z,32.10
2018-09-14T02:15:02.485Z,32.70
2018-09-14T02:16:02.456Z,35.30
2018-09-14T02:17:02.421Z,27.50
2018-09-14T02:18:02.379Z,44.40
2018-09-14T02:19:02.359Z,40.40
2018-09-14T02:20:02.312Z,39.80
2018-09-14T02:21:02.286Z,48.70
2018-09-14T02:22:02.244Z,48.00
2018-09-14T02:23:02.206Z,43.10
2018-09-14T02:24:02.177Z,47.20
2018-09-14T02:25:02.134Z,51.60
2018-09-14T02:26:02.112Z,36.10
2018-09-14T02:27:02.166Z,41.60
2018-09-14T02:28:02.165Z,40.00
2018-09-14T02:29:02.001Z,40.50
2018-09-14T02:30:01.973Z,32.40
2018-09-14T02:31:01.929Z,46.10
2018-09-14T02:32:01.893Z,41.20
2018-09-14T02:33:01.856Z,39.50
2018-09-14T02:34:01.824Z,40.50
2018-09-14T02:35:01.793Z,51.90
2018-09-14T02:36:01.755Z,53.30
2018-09-14T02:37:01.728Z,62.20
2018-09-14T02:38:01.696Z,59.00
2018-09-14T02:39:02.093Z,55.00
2018-09-14T02:40:01.627Z,60.10
2018-09-14T02:41:01.584Z,51.10
2018-09-14T02:42:01.540Z,55.80
2018-09-14T02:43:01.523Z,50.40
2018-09-14T02:44:01.471Z,58.50
2018-09-14T02:45:01.513Z,53.20
2018-09-14T02:46:01.404Z,69.50
2018-09-14T02:47:01.381Z,59.50
2018-09-14T02:48:01.340Z,58.50
2018-09-14T02:49:01.304Z,59.90
2018-09-14T02:50:01.282Z,62.00
2018-09-14T02:51:01.243Z,60.10
2018-09-14T02:52:01.200Z,57.20
2018-09-14T02:53:01.170Z,51.50
2018-09-14T02:54:01.847Z,53.00
2018-09-14T02:55:01.104Z,51.40
2018-09-14T02:56:01.056Z,49.70
2018-09-14T02:57:01.023Z,55.40
2018-09-14T02:58:00.985Z,57.40
2018-09-14T02:59:00.958Z,57.50
2018-09-14T03:00:00.958Z,60.30
2018-09-14T03:01:00.885Z,66.90
2018-09-14T03:02:00.844Z,56.50
2018-09-14T03:03:00.814Z,59.30
2018-09-14T03:04:00.784Z,43.80
2018-09-14T03:05:00.758Z,52.40
2018-09-14T03:06:00.704Z,50.90
2018-09-14T03:07:00.681Z,53.90
2018-09-14T03:08:00.648Z,52.50
2018-09-14T03:09:00.598Z,52.20
2018-09-14T03:10:00.565Z,50.20
2018-09-14T03:11:00.530Z,48.50
2018-09-14T03:12:00.497Z,46.60
2018-09-14T03:13:00.461Z,44.70
2018-09-14T03:14:00.431Z,48.20
2018-09-14T03:15:00.406Z,45.50
2018-09-14T03:16:00.353Z,50.10
2018-09-14T03:17:00.336Z,44.70
2018-09-14T03:18:00.283Z,51.80
2018-09-14T03:19:00.256Z,54.40
2018-09-14T03:20:00.221Z,51.70
2018-09-14T03:21:00.175Z,52.90
2018-09-14T03:22:00.153Z,54.70
2018-09-14T03:23:00.116Z,44.00
2018-09-14T03:24:00.108Z,36.90
2018-09-14T03:25:00.035Z,43.50
2018-09-14T03:26:00.019Z,43.10
2018-09-14T03:26:59.970Z,39.10
2018-09-14T03:27:59.934Z,48.00
2018-09-14T03:28:59.898Z,43.00
2018-09-14T03:29:59.864Z,41.30
2018-09-14T03:30:59.839Z,50.80
2018-09-14T03:31:59.789Z,51.80
2018-09-14T03:32:59.772Z,43.00
2018-09-14T03:33:59.720Z,51.50
2018-09-14T03:34:59.685Z,42.60
2018-09-14T03:35:59.651Z,42.10
2018-09-14T03:36:59.625Z,38.00
2018-09-14T03:37:59.583Z,38.20
2018-09-14T03:38:59.555Z,38.70
2018-09-14T03:39:59.523Z,33.90
2018-09-14T03:40:59.481Z,27.70
2018-09-14T03:41:59.442Z,30.10
2018-09-14T03:42:59.411Z,37.50
2018-09-14T03:43:59.388Z,25.30
2018-09-14T03:44:59.354Z,32.60
2018-09-14T03:45:59.479Z,40.20
2018-09-14T03:46:59.275Z,38.00
2018-09-14T03:47:59.229Z,41.20
2018-09-14T03:48:59.189Z,46.00
2018-09-14T03:49:59.155Z,45.40
2018-09-14T03:50:59.122Z,42.10
2018-09-14T03:51:59.112Z,40.80
2018-09-14T03:52:59.048Z,47.90
2018-09-14T03:53:59.020Z,46.50
2018-09-14T03:54:58.980Z,40.60
2018-09-14T03:55:58.948Z,39.40
2018-09-14T03:56:58.915Z,42.50
2018-09-14T03:57:58.877Z,44.00
2018-09-14T03:58:58.837Z,35.60
2018-09-14T03:59:58.828Z,32.90
2018-09-14T04:00:58.768Z,34.90
2018-09-14T04:01:58.728Z,40.90
2018-09-14T04:02:58.705Z,37.10
2018-09-14T04:03:59.337Z,39.40
2018-09-14T04:04:58.634Z,46.40
2018-09-14T04:05:58.620Z,40.50
2018-09-14T04:06:58.554Z,40.90
2018-09-14T04:07:58.542Z,36.30
2018-09-14T04:08:58.482Z,40.40
2018-09-14T04:09:58.449Z,41.20
2018-09-14T04:10:58.420Z,37.80
2018-09-14T04:11:58.378Z,44.00
2018-09-14T04:12:58.352Z,38.20
2018-09-14T04:13:58.310Z,37.20
2018-09-14T04:14:58.278Z,42.10
2018-09-14T04:15:58.559Z,41.90
2018-09-14T04:16:58.205Z,41.70
2018-09-14T04:17:58.171Z,41.20
2018-09-14T04:18:58.129Z,39.30
2018-09-14T04:19:58.097Z,42.60
2018-09-14T04:20:58.057Z,47.40
2018-09-14T04:21:58.031Z,48.00
2018-09-14T04:22:58.020Z,50.30
2018-09-14T04:23:57.954Z,47.30
2018-09-14T04:24:57.921Z,40.60
2018-09-14T04:25:57.883Z,47.70
2018-09-14T04:26:57.852Z,44.50
2018-09-14T04:27:57.867Z,40.70
2018-09-14T04:28:57.777Z,34.80
2018-09-14T04:29:57.754Z,28.80
2018-09-14T04:30:57.747Z,33.20
2018-09-14T04:31:57.680Z,37.30
2018-09-14T04:32:57.652Z,32.80
2018-09-14T04:33:57.976Z,32.10
2018-09-14T04:34:57.568Z,36.80
2018-09-14T04:35:57.531Z,42.60
2018-09-14T04:36:57.493Z,54.70
2018-09-14T04:37:57.574Z,40.10
2018-09-14T04:38:57.428Z,40.50
2018-09-14T04:39:57.392Z,44.20
2018-09-14T04:40:57.356Z,46.60
2018-09-14T04:41:57.328Z,36.60
2018-09-14T04:42:57.297Z,39.80
2018-09-14T04:43:57.253Z,43.00
2018-09-14T04:44:57.222Z,42.10
2018-09-14T04:45:57.175Z,37.90
2018-09-14T04:46:57.144Z,43.50
2018-09-14T04:47:57.117Z,49.70
2018-09-14T04:48:57.080Z,52.10
2018-09-14T04:49:57.053Z,48.50
2018-09-14T04:50:57.006Z,44.00
2018-09-14T04:51:56.973Z,44.20
2018-09-14T04:52:56.937Z,48.70
2018-09-14T04:53:56.917Z,50.00
2018-09-14T04:54:56.865Z,41.20
2018-09-14T04:55:56.839Z,44.90
2018-09-14T04:56:56.792Z,40.50
2018-09-14T04:57:56.751Z,30.90
2018-09-14T04:58:56.725Z,35.20
2018-09-14T04:59:56.694Z,31.30
2018-09-14T05:00:56.686Z,26.80
2018-09-14T05:01:56.638Z,34.10
2018-09-14T05:02:56.578Z,27.80
2018-09-14T05:03:56.543Z,32.50
2018-09-14T05:04:56.508Z,40.30
2018-09-14T05:05:56.468Z,40.60
2018-09-14T05:06:56.440Z,43.40
2018-09-14T05:07:56.396Z,44.50
2018-09-14T05:08:56.364Z,40.90
2018-09-14T05:09:56.353Z,40.50
2018-09-14T05:10:56.302Z,53.20
2018-09-14T05:11:56.275Z,41.10
2018-09-14T05:12:56.223Z,41.70
2018-09-14T05:13:56.234Z,42.20
2018-09-14T05:14:56.152Z,49.10
2018-09-14T05:15:56.119Z,44.00
2018-09-14T05:16:56.084Z,46.70
2018-09-14T05:17:56.039Z,52.80
2018-09-14T05:18:56.026Z,75.90
2018-09-14T05:19:55.972Z,67.80
2018-09-14T05:20:55.934Z,62.20
2018-09-14T05:21:55.901Z,56.70
2018-09-14T05:22:55.874Z,66.60
2018-09-14T05:23:55.886Z,59.40
2018-09-14T05:24:55.855Z,50.90
2018-09-14T05:25:55.758Z,45.40
2018-09-14T05:26:55.739Z,50.60
2018-09-14T05:27:55.687Z,40.00
2018-09-14T05:28:55.670Z,40.00
2018-09-14T05:29:55.620Z,36.10
2018-09-14T05:30:55.583Z,39.90
2018-09-14T05:31:55.563Z,32.90
2018-09-14T05:32:55.538Z,36.10
2018-09-14T05:33:55.477Z,32.20
2018-09-14T05:34:55.466Z,29.70
2018-09-14T05:35:55.411Z,47.00
2018-09-14T05:36:55.367Z,38.60
2018-09-14T05:37:55.332Z,44.30
2018-09-14T05:38:55.301Z,40.00
2018-09-14T05:39:55.275Z,38.80
2018-09-14T05:40:55.239Z,39.30
2018-09-14T05:41:55.232Z,37.00
2018-09-14T05:42:55.167Z,33.70
2018-09-14T05:43:55.132Z,36.80
2018-09-14T05:44:55.096Z,49.20
2018-09-14T05:45:55.051Z,40.30
2018-09-14T05:46:55.025Z,46.20
2018-09-14T05:47:55.007Z,46.80
2018-09-14T05:48:54.949Z,52.20
2018-09-14T05:49:54.921Z,55.90
2018-09-14T05:50:54.877Z,64.20
2018-09-14T05:51:54.842Z,54.50
2018-09-14T05:52:54.819Z,53.10
2018-09-14T05:53:54.788Z,49.70
2018-09-14T05:54:54.742Z,42.60
2018-09-14T05:55:54.704Z,63.10
2018-09-14T05:56:54.678Z,60.50
2018-09-14T05:57:54.645Z,58.50
2018-09-14T05:58:54.594Z,48.40
2018-09-14T05:59:54.602Z,47.90
2018-09-14T06:00:54.539Z,44.60
2018-09-14T06:01:54.505Z,39.70
2018-09-14T06:02:54.470Z,39.10
2018-09-14T06:03:54.465Z,33.30
2018-09-14T06:04:54.390Z,40.10
2018-09-14T06:05:54.382Z,38.20
2018-09-14T06:06:54.339Z,36.40
2018-09-14T06:07:54.323Z,40.60
2018-09-14T06:08:54.257Z,42.10
2018-09-14T06:09:54.228Z,38.10
2018-09-14T06:10:54.185Z,40.00
2018-09-14T06:11:54.143Z,39.30
2018-09-14T06:12:54.108Z,45.20
2018-09-14T06:13:54.073Z,45.50
2018-09-14T06:14:54.067Z,36.30
2018-09-14T06:15:54.047Z,49.20
2018-09-14T06:16:54.057Z,41.90
2018-09-14T06:17:53.958Z,34.80
2018-09-14T06:18:53.908Z,33.40
2018-09-14T06:19:53.907Z,31.80
2018-09-14T06:20:53.829Z,37.10
2018-09-14T06:21:53.797Z,33.10
2018-09-14T06:22:53.773Z,35.60
2018-09-14T06:23:53.723Z,36.60
2018-09-14T06:24:53.690Z,33.20
2018-09-14T06:25:53.687Z,40.50
2018-09-14T06:26:53.617Z,30.90
2018-09-14T06:27:53.595Z,29.70
2018-09-14T06:28:53.601Z,28.10
2018-09-14T06:29:53.547Z,33.60
2018-09-14T06:30:53.496Z,28.60
2018-09-14T06:31:53.448Z,32.20
2018-09-14T06:32:53.418Z,32.30
2018-09-14T06:33:53.388Z,36.60
2018-09-14T06:34:53.348Z,26.20
2018-09-14T06:35:53.313Z,31.00
2018-09-14T06:36:53.288Z,32.80
2018-09-14T06:37:53.252Z,32.80
2018-09-14T06:38:53.218Z,34.90
2018-09-14T06:39:53.271Z,31.90
2018-09-14T06:40:53.150Z,28.50
2018-09-14T06:41:53.125Z,31.20
2018-09-14T06:42:53.087Z,36.10
2018-09-14T06:43:53.046Z,28.00
2018-09-14T06:44:53.054Z,34.30
2018-09-14T06:45:53.002Z,30.40
2018-09-14T06:46:52.953Z,33.70
2018-09-14T06:47:52.937Z,29.70
2018-09-14T06:48:52.882Z,35.80
2018-09-14T06:49:52.868Z,30.30
2018-09-14T06:50:52.822Z,29.70
2018-09-14T06:51:52.789Z,28.10
2018-09-14T06:52:52.756Z,32.70
2018-09-14T06:53:52.747Z,32.10
2018-09-14T06:54:52.706Z,32.40
2018-09-14T06:55:52.690Z,33.30
2018-09-14T06:56:52.629Z,40.10
2018-09-14T06:57:52.604Z,32.50
2018-09-14T06:58:52.574Z,47.30
2018-09-14T06:59:52.534Z,25.60
2018-09-14T07:00:52.497Z,33.00
2018-09-14T07:01:52.468Z,27.10
2018-09-14T07:02:52.442Z,31.10
2018-09-14T07:03:52.413Z,38.90
2018-09-14T07:04:52.402Z,36.20
2018-09-14T07:05:52.353Z,34.70
2018-09-14T07:06:52.312Z,35.30
2018-09-14T07:07:52.290Z,38.80
2018-09-14T07:08:52.273Z,38.40
2018-09-14T07:09:52.220Z,28.60
2018-09-14T07:10:52.182Z,33.00
2018-09-14T07:11:52.156Z,33.10
2018-09-14T07:12:52.125Z,41.70
2018-09-14T07:13:52.104Z,34.30
2018-09-14T07:14:52.064Z,38.60
2018-09-14T07:15:52.035Z,39.60
2018-09-14T07:16:52.015Z,39.80
2018-09-14T07:17:51.975Z,32.70
2018-09-14T07:18:51.974Z,45.50
2018-09-14T07:19:51.949Z,34.40
2018-09-14T07:20:51.898Z,41.00
2018-09-14T07:21:51.954Z,38.40
2018-09-14T07:22:51.841Z,46.90
2018-09-14T07:23:51.791Z,39.50
2018-09-14T07:24:51.920Z,43.80
2018-09-14T07:25:51.756Z,41.40
2018-09-14T07:26:51.726Z,38.00
2018-09-14T07:27:51.675Z,44.00
2018-09-14T07:28:51.701Z,37.70
2018-09-14T07:29:51.660Z,38.80
2018-09-14T07:30:51.641Z,42.80
2018-09-14T07:31:51.672Z,44.20
2018-09-14T07:32:51.547Z,48.40
2018-09-14T07:33:51.500Z,37.10
2018-09-14T07:34:51.485Z,31.70
2018-09-14T07:35:51.459Z,40.20
2018-09-14T07:36:52.097Z,37.30
2018-09-14T07:37:51.389Z,31.10
2018-09-14T07:38:51.362Z,40.00
2018-09-14T07:39:51.363Z,31.60
2018-09-14T07:40:51.332Z,38.10
2018-09-14T07:41:51.278Z,33.80
2018-09-14T07:42:51.245Z,34.10
2018-09-14T07:43:51.220Z,40.60
2018-09-14T07:44:51.202Z,36.10
2018-09-14T07:45:51.177Z,34.30
2018-09-14T07:46:51.140Z,38.40
2018-09-14T07:47:51.120Z,30.50
2018-09-14T07:48:51.083Z,38.10
2018-09-14T07:49:51.066Z,32.90
2018-09-14T07:50:51.064Z,42.20
2018-09-14T07:51:50.996Z,35.30
2018-09-14T07:52:51.454Z,37.90
2018-09-14T07:53:50.953Z,43.70
2018-09-14T07:54:50.924Z,31.60
2018-09-14T07:55:50.849Z,41.10
2018-09-14T07:56:50.816Z,41.20
2018-09-14T07:57:50.815Z,34.60
2018-09-14T07:58:50.772Z,36.00
2018-09-14T07:59:50.733Z,46.10
2018-09-14T08:00:50.719Z,43.00
2018-09-14T08:01:50.680Z,39.50
2018-09-14T08:02:50.668Z,40.90
2018-09-14T08:03:50.726Z,40.40
2018-09-14T08:04:50.616Z,38.50
2018-09-14T08:05:50.577Z,37.50
2018-09-14T08:06:50.553Z,38.80
2018-09-14T08:07:50.527Z,37.60
2018-09-14T08:08:50.961Z,37.20
2018-09-14T08:09:50.472Z,42.20
2018-09-14T08:10:50.449Z,44.30
2018-09-14T08:11:50.449Z,45.30
2018-09-14T08:12:50.403Z,39.10
2018-09-14T08:13:50.369Z,33.80
2018-09-14T08:14:50.348Z,42.50
2018-09-14T08:15:50.326Z,42.90
2018-09-14T08:16:50.296Z,38.60
2018-09-14T08:17:50.322Z,40.20
2018-09-14T08:18:50.298Z,33.90
2018-09-14T08:19:50.283Z,42.80
2018-09-14T08:20:50.204Z,39.70
2018-09-14T08:21:50.399Z,41.00
2018-09-14T08:22:50.146Z,48.40
2018-09-14T08:23:50.172Z,37.70
2018-09-14T08:24:50.182Z,41.00
2018-09-14T08:25:50.127Z,39.90
2018-09-14T08:26:50.147Z,41.70
2018-09-14T08:27:50.084Z,37.20
2018-09-14T08:28:50.050Z,30.00
2018-09-14T08:29:50.027Z,40.60
2018-09-14T08:30:50.003Z,40.90
2018-09-14T08:31:49.973Z,36.20
2018-09-14T08:32:49.964Z,44.10
2018-09-14T08:33:49.951Z,38.60
2018-09-14T08:34:49.940Z,32.10
2018-09-14T08:35:49.886Z,28.00
2018-09-14T08:36:49.861Z,40.20
2018-09-14T08:37:49.829Z,38.20
2018-09-14T08:38:49.806Z,28.50
2018-09-14T08:39:49.786Z,31.10
2018-09-14T08:40:49.757Z,31.70
2018-09-14T08:41:49.769Z,30.40
2018-09-14T08:42:49.708Z,40.90
2018-09-14T08:43:49.683Z,31.80
2018-09-14T08:44:49.674Z,32.30
2018-09-14T08:45:49.748Z,29.60
2018-09-14T08:46:49.616Z,37.20
2018-09-14T08:47:49.667Z,31.70
2018-09-14T08:48:50.250Z,39.60
2018-09-14T08:49:49.544Z,27.60
2018-09-14T08:50:49.517Z,29.10
2018-09-14T08:51:49.491Z,33.20
2018-09-14T08:52:49.465Z,36.40
2018-09-14T08:53:49.444Z,32.80
2018-09-14T08:54:49.456Z,36.00
2018-09-14T08:55:49.400Z,34.20
2018-09-14T08:56:49.373Z,34.10
2018-09-14T08:57:49.352Z,32.60
2018-09-14T08:58:49.338Z,37.00
2018-09-14T08:59:49.328Z,37.30
2018-09-14T09:00:49.361Z,34.60
2018-09-14T09:01:49.264Z,25.70
2018-09-14T09:02:49.234Z,30.50
2018-09-14T09:03:49.248Z,29.70
2018-09-14T09:04:49.218Z,28.30
2018-09-14T09:05:49.169Z,30.50
2018-09-14T09:06:49.167Z,31.70
2018-09-14T09:07:49.118Z,33.80
2018-09-14T09:08:49.085Z,30.10
2018-09-14T09:09:49.067Z,34.30
2018-09-14T09:10:49.035Z,34.10
2018-09-14T09:11:49.032Z,28.30
2018-09-14T09:12:49.009Z,30.00
2018-09-14T09:13:48.991Z,24.70
2018-09-14T09:14:48.943Z,27.00
2018-09-14T09:15:48.923Z,25.90
2018-09-14T09:16:48.900Z,30.10
2018-09-14T09:17:48.946Z,26.70
2018-09-14T09:18:48.874Z,28.70
2018-09-14T09:19:48.848Z,24.80
2018-09-14T09:20:48.803Z,29.70
2018-09-14T09:21:48.782Z,29.80
2018-09-14T09:22:48.762Z,24.00
2018-09-14T09:23:48.740Z,31.70
2018-09-14T09:24:48.733Z,21.30
2018-09-14T09:25:48.715Z,27.70
2018-09-14T09:26:48.707Z,21.90
2018-09-14T09:27:48.650Z,18.30
2018-09-14T09:28:48.615Z,22.70
2018-09-14T09:29:48.597Z,26.60
2018-09-14T09:30:48.582Z,26.30
2018-09-14T09:31:48.548Z,22.80
2018-09-14T09:32:48.522Z,23.80
2018-09-14T09:33:48.508Z,22.00
2018-09-14T09:34:48.477Z,21.90
2018-09-14T09:35:48.476Z,24.80
2018-09-14T09:36:48.436Z,23.30
2018-09-14T09:37:48.409Z,24.30
2018-09-14T09:38:48.764Z,24.80
2018-09-14T09:39:48.368Z,29.60
2018-09-14T09:40:48.347Z,20.60
2018-09-14T09:41:48.318Z,19.60
2018-09-14T09:42:48.292Z,24.20
2018-09-14T09:43:48.316Z,25.40
2018-09-14T09:44:48.248Z,20.80
2018-09-14T09:45:48.237Z,23.50
2018-09-14T09:46:48.212Z,22.70
2018-09-14T09:47:48.183Z,26.80
2018-09-14T09:48:48.215Z,19.80
2018-09-14T09:49:48.147Z,21.70
2018-09-14T09:50:48.215Z,22.60
2018-09-14T09:51:48.096Z,22.20
2018-09-14T09:52:48.065Z,24.50
2018-09-14T09:53:48.062Z,23.90
2018-09-14T09:54:48.059Z,18.80
2018-09-14T09:55:48.002Z,22.70
2018-09-14T09:56:48.033Z,24.40
2018-09-14T09:57:47.956Z,19.10
2018-09-14T09:58:47.927Z,26.10
2018-09-14T09:59:47.923Z,26.90
2018-09-14T10:00:47.921Z,27.50
2018-09-14T10:01:47.865Z,20.20
2018-09-14T10:02:47.872Z,20.50
2018-09-14T10:03:47.920Z,21.00
2018-09-14T10:04:47.808Z,27.60
2018-09-14T10:05:47.796Z,19.80
2018-09-14T10:06:47.799Z,22.90
2018-09-14T10:07:47.741Z,21.80
2018-09-14T10:08:47.733Z,19.90
2018-09-14T10:09:47.687Z,18.70
2018-09-14T10:10:47.670Z,19.50
2018-09-14T10:11:47.644Z,16.60
2018-09-14T10:12:47.620Z,19.20
2018-09-14T10:13:47.607Z,17.80
2018-09-14T10:14:47.587Z,15.40
2018-09-14T10:15:47.571Z,15.90
2018-09-14T10:16:47.858Z,17.50
2018-09-14T10:17:47.542Z,14.90
2018-09-14T10:18:47.534Z,20.10
2018-09-14T10:19:47.476Z,16.30
2018-09-14T10:20:47.516Z,18.10
2018-09-14T10:21:47.491Z,14.70
2018-09-14T10:22:47.465Z,16.10
2018-09-14T10:23:47.382Z,19.90
2018-09-14T10:24:47.396Z,15.00
2018-09-14T10:25:47.345Z,15.90
2018-09-14T10:26:47.357Z,13.70
2018-09-14T10:27:47.299Z,18.40
2018-09-14T10:28:47.348Z,11.70
2018-09-14T10:29:47.268Z,12.60
2018-09-14T10:30:47.237Z,13.90
2018-09-14T10:31:47.220Z,16.00
2018-09-14T10:32:47.203Z,18.10
2018-09-14T10:33:47.192Z,17.30
2018-09-14T10:34:47.173Z,14.70
2018-09-14T10:35:47.153Z,13.30
2018-09-14T10:36:47.122Z,16.40
2018-09-14T10:37:47.114Z,16.30
2018-09-14T10:38:47.092Z,14.60
2018-09-14T10:39:47.058Z,14.20
2018-09-14T10:40:47.133Z,17.00
2018-09-14T10:41:47.003Z,13.00
2018-09-14T10:42:47.409Z,13.30
2018-09-14T10:43:46.983Z,15.20
2018-09-14T10:44:46.958Z,15.40
2018-09-14T10:45:46.951Z,15.50
2018-09-14T10:46:46.894Z,15.90
2018-09-14T10:47:46.880Z,14.20
2018-09-14T10:48:46.860Z,16.40
2018-09-14T10:49:46.825Z,18.90
2018-09-14T10:50:47.502Z,16.30
2018-09-14T10:51:46.785Z,18.20
2018-09-14T10:52:46.811Z,19.80
2018-09-14T10:53:46.777Z,17.50
2018-09-14T10:54:46.796Z,20.10
2018-09-14T10:55:47.389Z,16.50
2018-09-14T10:56:46.675Z,18.90
2018-09-14T10:57:46.662Z,18.40
2018-09-14T10:58:46.627Z,23.90
2018-09-14T10:59:46.613Z,18.10
2018-09-14T11:00:46.628Z,20.50
2018-09-14T11:01:46.568Z,19.30
2018-09-14T11:02:46.554Z,25.90
2018-09-14T11:03:46.512Z,23.30
2018-09-14T11:04:46.503Z,21.80
2018-09-14T11:05:46.474Z,19.20
2018-09-14T11:06:46.957Z,18.10
2018-09-14T11:07:46.440Z,21.40
2018-09-14T11:08:46.423Z,23.20
2018-09-14T11:09:46.407Z,17.40
2018-09-14T11:10:46.363Z,20.90
2018-09-14T11:11:46.333Z,22.10
2018-09-14T11:12:46.480Z,21.50
2018-09-14T11:13:46.280Z,19.50
2018-09-14T11:14:46.264Z,20.50
2018-09-14T11:15:46.286Z,23.20
2018-09-14T11:16:46.213Z,25.40
2018-09-14T11:17:46.190Z,17.70
2018-09-14T11:18:46.302Z,28.80
2018-09-14T11:19:46.148Z,23.70
2018-09-14T11:20:46.115Z,21.10
2018-09-14T11:21:46.101Z,21.20
2018-09-14T11:22:46.129Z,24.90
2018-09-14T11:23:46.058Z,20.30
2018-09-14T11:24:46.232Z,25.60
2018-09-14T11:25:46.081Z,21.80
2018-09-14T11:26:45.990Z,24.90
2018-09-14T11:27:45.957Z,22.80
2018-09-14T11:28:45.923Z,18.00
2018-09-14T11:29:45.936Z,22.70
2018-09-14T11:30:45.898Z,23.30
2018-09-14T11:31:45.874Z,23.80
2018-09-14T11:32:45.838Z,26.40
2018-09-14T11:33:45.809Z,25.00
2018-09-14T11:34:45.792Z,19.80
2018-09-14T11:35:45.758Z,23.70
2018-09-14T11:36:45.760Z,29.90
2018-09-14T11:37:45.769Z,22.00
2018-09-14T11:38:45.695Z,27.40
2018-09-14T11:39:45.723Z,21.10
2018-09-14T11:40:45.649Z,20.60
2018-09-14T11:41:45.619Z,21.00
2018-09-14T11:42:45.606Z,24.10
2018-09-14T11:43:45.580Z,21.80
2018-09-14T11:44:45.543Z,25.50
2018-09-14T11:45:45.525Z,30.30
2018-09-14T11:46:45.517Z,18.00
2018-09-14T11:47:45.483Z,19.90
2018-09-14T11:48:45.468Z,23.10
2018-09-14T11:49:45.433Z,25.50
2018-09-14T11:50:45.410Z,21.30
2018-09-14T11:51:45.385Z,25.30
2018-09-14T11:52:45.380Z,25.80
2018-09-14T11:53:45.348Z,27.20
2018-09-14T11:54:45.311Z,31.70
2018-09-14T11:55:45.297Z,18.90
2018-09-14T11:56:45.262Z,26.00
2018-09-14T11:57:45.238Z,20.90
2018-09-14T11:58:45.220Z,22.00
2018-09-14T11:59:45.180Z,17.50
2018-09-14T12:00:45.160Z,22.30
2018-09-14T12:01:45.140Z,20.20
2018-09-14T12:02:45.109Z,24.80
2018-09-14T12:03:45.089Z,22.00
2018-09-14T12:04:45.058Z,24.00
2018-09-14T12:05:45.039Z,19.30
2018-09-14T12:06:45.014Z,22.10
2018-09-14T12:07:45.004Z,29.00
2018-09-14T12:08:44.964Z,26.40
2018-09-14T12:09:44.946Z,23.40
2018-09-14T12:10:44.916Z,21.90
2018-09-14T12:11:44.897Z,22.80
2018-09-14T12:12:44.904Z,25.50
2018-09-14T12:13:45.236Z,37.00
2018-09-14T12:14:44.856Z,22.20
2018-09-14T12:15:44.807Z,15.10
2018-09-14T12:16:44.810Z,17.50
2018-09-14T12:17:44.764Z,22.20
2018-09-14T12:18:44.736Z,22.00
2018-09-14T12:19:44.729Z,20.60
2018-09-14T12:20:44.692Z,16.60
2018-09-14T12:21:44.669Z,19.60
2018-09-14T12:22:44.647Z,24.30
2018-09-14T12:23:44.643Z,21.80
2018-09-14T12:24:44.608Z,15.40
2018-09-14T12:25:45.516Z,14.30
2018-09-14T12:26:44.565Z,20.40
2018-09-14T12:27:44.560Z,15.70
2018-09-14T12:28:44.518Z,14.90
2018-09-14T12:29:44.502Z,17.80
2018-09-14T12:30:44.474Z,23.40
2018-09-14T12:31:44.458Z,17.60
2018-09-14T12:32:44.437Z,20.50
2018-09-14T12:33:44.414Z,20.40
2018-09-14T12:34:44.398Z,19.50
2018-09-14T12:35:44.445Z,14.90
2018-09-14T12:36:44.354Z,18.00
2018-09-14T12:37:44.347Z,17.90
2018-09-14T12:38:44.302Z,17.30
2018-09-14T12:39:44.273Z,17.60
2018-09-14T12:40:44.255Z,19.30
2018-09-14T12:41:44.238Z,18.90
2018-09-14T12:42:44.205Z,16.90
2018-09-14T12:43:44.196Z,14.90
2018-09-14T12:44:44.158Z,16.20
2018-09-14T12:45:44.137Z,18.80
2018-09-14T12:46:44.116Z,24.00
2018-09-14T12:47:44.092Z,18.30
2018-09-14T12:48:44.135Z,16.30
2018-09-14T12:49:44.047Z,20.60
2018-09-14T12:50:44.038Z,20.70
2018-09-14T12:51:44.004Z,16.70